sensor_id;sensor_type;location;lat;lon;timestamp;pressure;altitude;pressure_sealevel;temperature;humidity
34073;BME280;20346;52.702;16.886;2023-02-20T00:02:33;101275.16;;;1.21;69.99
34073;BME280;20346;52.702;16.886;2023-02-20T00:05:20;101274.44;;;1.25;69.98
34073;BME280;20346;52.702;16.886;2023-02-20T00:08:07;101277.58;;;1.27;69.99
34073;BME280;20346;52.702;16.886;2023-02-20T00:10:53;101283.13;;;1.31;70.03
34073;BME280;20346;52.702;16.886;2023-02-20T00:13:48;101283.07;;;1.34;70.08
34073;BME280;20346;52.702;16.886;2023-02-20T00:16:34;101283.36;;;1.39;70.09
34073;BME280;20346;52.702;16.886;2023-02-20T00:19:20;101279.93;;;1.43;70.10
34073;BME280;20346;52.702;16.886;2023-02-20T00:22:06;101277.68;;;1.47;70.05
34073;BME280;20346;52.702;16.886;2023-02-20T00:24:52;101270.96;;;1.49;70.06
34073;BME280;20346;52.702;16.886;2023-02-20T00:27:39;101273.05;;;1.51;70.09
34073;BME280;20346;52.702;16.886;2023-02-20T00:30:25;101266.16;;;1.53;70.05
34073;BME280;20346;52.702;16.886;2023-02-20T00:33:11;101260.30;;;1.56;70.11
34073;BME280;20346;52.702;16.886;2023-02-20T00:35:58;101263.08;;;1.58;70.16
34073;BME280;20346;52.702;16.886;2023-02-20T00:38:44;101259.90;;;1.60;70.11
34073;BME280;20346;52.702;16.886;2023-02-20T00:41:31;101254.46;;;1.60;70.11
34073;BME280;20346;52.702;16.886;2023-02-20T00:44:17;101252.60;;;1.60;70.15
34073;BME280;20346;52.702;16.886;2023-02-20T00:47:03;101251.09;;;1.61;70.14
34073;BME280;20346;52.702;16.886;2023-02-20T00:49:49;101234.43;;;1.61;70.16
34073;BME280;20346;52.702;16.886;2023-02-20T00:52:35;101222.01;;;1.60;70.17
34073;BME280;20346;52.702;16.886;2023-02-20T00:55:24;101219.92;;;1.58;70.17
34073;BME280;20346;52.702;16.886;2023-02-20T00:58:10;101220.55;;;1.57;70.25
34073;BME280;20346;52.702;16.886;2023-02-20T01:00:57;101217.65;;;1.56;70.22
34073;BME280;20346;52.702;16.886;2023-02-20T01:03:43;101212.55;;;1.56;70.24
34073;BME280;20346;52.702;16.886;2023-02-20T01:06:29;101221.69;;;1.54;70.17
34073;BME280;20346;52.702;16.886;2023-02-20T01:09:15;101231.80;;;1.51;70.21
34073;BME280;20346;52.702;16.886;2023-02-20T01:12:01;101230.52;;;1.49;70.30
34073;BME280;20346;52.702;16.886;2023-02-20T01:14:47;101233.20;;;1.48;70.34
34073;BME280;20346;52.702;16.886;2023-02-20T01:17:33;101231.10;;;1.45;70.31
34073;BME280;20346;52.702;16.886;2023-02-20T01:20:19;101224.59;;;1.44;70.35
34073;BME280;20346;52.702;16.886;2023-02-20T01:23:06;101213.02;;;1.43;70.38
34073;BME280;20346;52.702;16.886;2023-02-20T01:25:52;101207.17;;;1.41;70.36
34073;BME280;20346;52.702;16.886;2023-02-20T01:28:42;101209.14;;;1.39;70.38
34073;BME280;20346;52.702;16.886;2023-02-20T01:31:28;101207.77;;;1.38;70.40
34073;BME280;20346;52.702;16.886;2023-02-20T01:34:15;101208.46;;;1.39;70.44
34073;BME280;20346;52.702;16.886;2023-02-20T01:37:02;101205.27;;;1.39;70.47
34073;BME280;20346;52.702;16.886;2023-02-20T01:39:48;101202.14;;;1.43;70.57
34073;BME280;20346;52.702;16.886;2023-02-20T01:42:34;101194.64;;;1.48;70.61
34073;BME280;20346;52.702;16.886;2023-02-20T01:48:15;101187.34;;;1.53;70.59
34073;BME280;20346;52.702;16.886;2023-02-20T01:51:03;101183.52;;;1.57;70.61
34073;BME280;20346;52.702;16.886;2023-02-20T01:53:49;101181.71;;;1.59;70.64
34073;BME280;20346;52.702;16.886;2023-02-20T01:56:35;101178.58;;;1.63;70.62
34073;BME280;20346;52.702;16.886;2023-02-20T01:59:22;101179.86;;;1.66;70.68
34073;BME280;20346;52.702;16.886;2023-02-20T02:02:10;101180.48;;;1.69;70.62
34073;BME280;20346;52.702;16.886;2023-02-20T02:04:56;101181.26;;;1.73;70.65
34073;BME280;20346;52.702;16.886;2023-02-20T02:07:43;101172.66;;;1.75;70.65
34073;BME280;20346;52.702;16.886;2023-02-20T02:10:30;101161.15;;;1.77;70.68
34073;BME280;20346;52.702;16.886;2023-02-20T02:13:17;101149.27;;;1.78;70.71
34073;BME280;20346;52.702;16.886;2023-02-20T02:24:59;101115.15;;;1.79;70.80
34073;BME280;20346;52.702;16.886;2023-02-20T02:37:08;101121.84;;;1.81;70.83
34073;BME280;20346;52.702;16.886;2023-02-20T02:40:06;101122.05;;;1.83;70.90
34073;BME280;20346;52.702;16.886;2023-02-20T02:48:51;101113.37;;;1.88;71.01
34073;BME280;20346;52.702;16.886;2023-02-20T02:51:39;101110.88;;;1.91;71.01
34073;BME280;20346;52.702;16.886;2023-02-20T02:54:30;101105.68;;;1.93;71.06
34073;BME280;20346;52.702;16.886;2023-02-20T03:00:07;101104.98;;;1.99;71.08
34073;BME280;20346;52.702;16.886;2023-02-20T03:03:11;101097.42;;;2.02;71.11
34073;BME280;20346;52.702;16.886;2023-02-20T03:08:45;101092.96;;;2.09;71.13
34073;BME280;20346;52.702;16.886;2023-02-20T03:11:34;101088.11;;;2.12;71.22
34073;BME280;20346;52.702;16.886;2023-02-20T03:14:25;101083.58;;;2.14;71.23
34073;BME280;20346;52.702;16.886;2023-02-20T03:17:32;101077.02;;;2.17;71.32
34073;BME280;20346;52.702;16.886;2023-02-20T03:20:21;101072.02;;;2.21;71.30
34073;BME280;20346;52.702;16.886;2023-02-20T03:23:09;101068.02;;;2.24;71.27
34073;BME280;20346;52.702;16.886;2023-02-20T03:26:00;101068.23;;;2.26;71.26
34073;BME280;20346;52.702;16.886;2023-02-20T03:28:53;101074.42;;;2.28;71.31
34073;BME280;20346;52.702;16.886;2023-02-20T03:31:49;101076.16;;;2.30;71.33
34073;BME280;20346;52.702;16.886;2023-02-20T03:34:55;101072.65;;;2.32;71.39
34073;BME280;20346;52.702;16.886;2023-02-20T03:38:01;101071.33;;;2.34;71.39
34073;BME280;20346;52.702;16.886;2023-02-20T03:41:07;101072.03;;;2.34;71.40
34073;BME280;20346;52.702;16.886;2023-02-20T03:44:13;101068.30;;;2.35;71.45
34073;BME280;20346;52.702;16.886;2023-02-20T03:47:00;101066.78;;;2.36;71.51
34073;BME280;20346;52.702;16.886;2023-02-20T03:49:47;101062.39;;;2.37;71.50
34073;BME280;20346;52.702;16.886;2023-02-20T03:52:35;101056.63;;;2.38;71.52
34073;BME280;20346;52.702;16.886;2023-02-20T03:55:21;101058.36;;;2.39;71.50
34073;BME280;20346;52.702;16.886;2023-02-20T03:58:09;101056.20;;;2.41;71.65
34073;BME280;20346;52.702;16.886;2023-02-20T04:00:57;101049.95;;;2.43;71.62
34073;BME280;20346;52.702;16.886;2023-02-20T04:03:47;101053.40;;;2.45;71.69
34073;BME280;20346;52.702;16.886;2023-02-20T04:06:33;101055.48;;;2.47;71.68
34073;BME280;20346;52.702;16.886;2023-02-20T04:09:25;101059.77;;;2.48;71.69
34073;BME280;20346;52.702;16.886;2023-02-20T04:12:16;101059.80;;;2.50;71.72
34073;BME280;20346;52.702;16.886;2023-02-20T04:15:04;101047.09;;;2.51;71.74
34073;BME280;20346;52.702;16.886;2023-02-20T04:17:56;101037.73;;;2.51;71.73
34073;BME280;20346;52.702;16.886;2023-02-20T04:20:44;101034.50;;;2.51;71.77
34073;BME280;20346;52.702;16.886;2023-02-20T04:23:32;101030.92;;;2.51;71.79
34073;BME280;20346;52.702;16.886;2023-02-20T04:26:20;101024.28;;;2.51;71.78
34073;BME280;20346;52.702;16.886;2023-02-20T04:29:07;101025.10;;;2.50;71.82
34073;BME280;20346;52.702;16.886;2023-02-20T04:31:53;101031.70;;;2.48;71.81
34073;BME280;20346;52.702;16.886;2023-02-20T04:34:39;101036.61;;;2.47;71.87
34073;BME280;20346;52.702;16.886;2023-02-20T04:37:26;101030.33;;;2.48;71.92
34073;BME280;20346;52.702;16.886;2023-02-20T04:40:14;101024.00;;;2.47;71.98
34073;BME280;20346;52.702;16.886;2023-02-20T04:43:01;101015.84;;;2.47;72.01
34073;BME280;20346;52.702;16.886;2023-02-20T04:45:47;100998.29;;;2.45;71.98
34073;BME280;20346;52.702;16.886;2023-02-20T04:48:33;100992.45;;;2.43;71.95
34073;BME280;20346;52.702;16.886;2023-02-20T04:51:19;100983.41;;;2.42;72.02
34073;BME280;20346;52.702;16.886;2023-02-20T04:54:05;100977.42;;;2.41;71.99
34073;BME280;20346;52.702;16.886;2023-02-20T04:56:51;100970.10;;;2.41;72.02
34073;BME280;20346;52.702;16.886;2023-02-20T04:59:38;100963.60;;;2.39;72.11
34073;BME280;20346;52.702;16.886;2023-02-20T05:02:24;100960.19;;;2.39;72.19
34073;BME280;20346;52.702;16.886;2023-02-20T05:05:15;100957.73;;;2.36;72.19
34073;BME280;20346;52.702;16.886;2023-02-20T05:08:02;100962.48;;;2.35;72.19
34073;BME280;20346;52.702;16.886;2023-02-20T05:10:49;100958.39;;;2.35;72.28
34073;BME280;20346;52.702;16.886;2023-02-20T05:13:35;100947.14;;;2.33;72.35
34073;BME280;20346;52.702;16.886;2023-02-20T05:16:21;100946.28;;;2.33;72.45
34073;BME280;20346;52.702;16.886;2023-02-20T05:19:07;100934.85;;;2.31;72.37
34073;BME280;20346;52.702;16.886;2023-02-20T05:21:53;100930.77;;;2.32;72.41
34073;BME280;20346;52.702;16.886;2023-02-20T05:24:58;100921.40;;;2.31;72.48
34073;BME280;20346;52.702;16.886;2023-02-20T05:27:44;100913.40;;;2.30;72.49
34073;BME280;20346;52.702;16.886;2023-02-20T05:30:31;100908.30;;;2.31;72.49
34073;BME280;20346;52.702;16.886;2023-02-20T05:33:17;100898.79;;;2.32;72.54
34073;BME280;20346;52.702;16.886;2023-02-20T05:36:03;100892.49;;;2.32;72.57
34073;BME280;20346;52.702;16.886;2023-02-20T05:38:49;100891.31;;;2.31;72.52
34073;BME280;20346;52.702;16.886;2023-02-20T05:41:36;100891.98;;;2.31;72.57
34073;BME280;20346;52.702;16.886;2023-02-20T05:44:22;100888.23;;;2.31;72.66
34073;BME280;20346;52.702;16.886;2023-02-20T05:47:08;100891.46;;;2.31;72.64
34073;BME280;20346;52.702;16.886;2023-02-20T05:49:54;100891.63;;;2.31;72.65
34073;BME280;20346;52.702;16.886;2023-02-20T05:52:40;100888.74;;;2.31;72.63
34073;BME280;20346;52.702;16.886;2023-02-20T05:55:27;100886.35;;;2.31;72.72
34073;BME280;20346;52.702;16.886;2023-02-20T05:58:13;100878.89;;;2.31;72.87
34073;BME280;20346;52.702;16.886;2023-02-20T06:00:59;100862.92;;;2.33;72.82
34073;BME280;20346;52.702;16.886;2023-02-20T06:03:45;100857.16;;;2.34;72.82
34073;BME280;20346;52.702;16.886;2023-02-20T06:06:35;100854.96;;;2.35;72.87
34073;BME280;20346;52.702;16.886;2023-02-20T06:09:22;100859.93;;;2.36;73.06
34073;BME280;20346;52.702;16.886;2023-02-20T06:12:08;100871.01;;;2.37;73.02
34073;BME280;20346;52.702;16.886;2023-02-20T06:14:54;100872.21;;;2.38;72.96
34073;BME280;20346;52.702;16.886;2023-02-20T06:17:41;100864.74;;;2.39;73.12
34073;BME280;20346;52.702;16.886;2023-02-20T06:20:27;100846.58;;;2.40;73.10
34073;BME280;20346;52.702;16.886;2023-02-20T06:23:13;100840.48;;;2.42;73.26
34073;BME280;20346;52.702;16.886;2023-02-20T06:25:59;100828.92;;;2.42;73.32
34073;BME280;20346;52.702;16.886;2023-02-20T06:28:45;100825.73;;;2.44;73.41
34073;BME280;20346;52.702;16.886;2023-02-20T06:31:35;100823.23;;;2.47;73.25
34073;BME280;20346;52.702;16.886;2023-02-20T06:34:21;100817.33;;;2.49;73.37
34073;BME280;20346;52.702;16.886;2023-02-20T06:37:10;100812.59;;;2.50;73.47
34073;BME280;20346;52.702;16.886;2023-02-20T06:39:56;100806.49;;;2.52;73.52
34073;BME280;20346;52.702;16.886;2023-02-20T06:42:43;100801.08;;;2.53;73.50
34073;BME280;20346;52.702;16.886;2023-02-20T06:45:29;100796.71;;;2.56;73.52
34073;BME280;20346;52.702;16.886;2023-02-20T06:48:15;100789.95;;;2.59;73.55
34073;BME280;20346;52.702;16.886;2023-02-20T06:51:02;100776.38;;;2.63;73.65
34073;BME280;20346;52.702;16.886;2023-02-20T06:53:48;100769.45;;;2.65;73.74
34073;BME280;20346;52.702;16.886;2023-02-20T06:56:34;100758.12;;;2.69;73.80
34073;BME280;20346;52.702;16.886;2023-02-20T06:59:21;100751.05;;;2.74;73.89
34073;BME280;20346;52.702;16.886;2023-02-20T07:02:11;100740.59;;;2.79;73.91
34073;BME280;20346;52.702;16.886;2023-02-20T07:04:57;100743.90;;;2.83;73.99
34073;BME280;20346;52.702;16.886;2023-02-20T07:07:43;100728.98;;;2.87;73.90
34073;BME280;20346;52.702;16.886;2023-02-20T07:10:30;100723.92;;;2.89;73.96
34073;BME280;20346;52.702;16.886;2023-02-20T07:13:16;100713.09;;;2.93;74.10
34073;BME280;20346;52.702;16.886;2023-02-20T07:16:02;100711.45;;;2.96;74.06
34073;BME280;20346;52.702;16.886;2023-02-20T07:18:48;100701.11;;;3.00;74.07
34073;BME280;20346;52.702;16.886;2023-02-20T07:21:34;100690.78;;;3.03;74.27
34073;BME280;20346;52.702;16.886;2023-02-20T07:24:20;100689.61;;;3.05;74.25
34073;BME280;20346;52.702;16.886;2023-02-20T07:27:07;100679.44;;;3.08;74.31
34073;BME280;20346;52.702;16.886;2023-02-20T07:29:55;100684.59;;;3.10;74.25
34073;BME280;20346;52.702;16.886;2023-02-20T07:32:41;100685.63;;;3.12;74.46
34073;BME280;20346;52.702;16.886;2023-02-20T07:35:27;100677.45;;;3.13;74.32
34073;BME280;20346;52.702;16.886;2023-02-20T07:38:14;100678.34;;;3.16;74.44
34073;BME280;20346;52.702;16.886;2023-02-20T07:41:00;100670.20;;;3.18;74.44
34073;BME280;20346;52.702;16.886;2023-02-20T07:43:46;100669.90;;;3.20;74.53
34073;BME280;20346;52.702;16.886;2023-02-20T07:46:32;100667.02;;;3.22;74.81
34073;BME280;20346;52.702;16.886;2023-02-20T07:49:19;100658.70;;;3.23;74.73
34073;BME280;20346;52.702;16.886;2023-02-20T07:52:05;100653.27;;;3.25;74.61
34073;BME280;20346;52.702;16.886;2023-02-20T07:54:51;100653.31;;;3.28;74.70
34073;BME280;20346;52.702;16.886;2023-02-20T07:57:37;100648.42;;;3.31;74.84
34073;BME280;20346;52.702;16.886;2023-02-20T08:00:25;100645.89;;;3.33;74.82
34073;BME280;20346;52.702;16.886;2023-02-20T08:03:11;100646.79;;;3.37;74.86
34073;BME280;20346;52.702;16.886;2023-02-20T08:05:57;100645.45;;;3.38;74.82
34073;BME280;20346;52.702;16.886;2023-02-20T08:08:50;100644.11;;;3.40;74.89
34073;BME280;20346;52.702;16.886;2023-02-20T08:11:36;100639.88;;;3.42;74.97
34073;BME280;20346;52.702;16.886;2023-02-20T08:14:22;100631.21;;;3.44;75.04
34073;BME280;20346;52.702;16.886;2023-02-20T08:17:09;100621.70;;;3.47;75.04
34073;BME280;20346;52.702;16.886;2023-02-20T08:19:56;100622.27;;;3.50;74.98
34073;BME280;20346;52.702;16.886;2023-02-20T08:22:46;100615.68;;;3.55;75.09
34073;BME280;20346;52.702;16.886;2023-02-20T08:25:33;100602.96;;;3.60;75.44
34073;BME280;20346;52.702;16.886;2023-02-20T08:28:20;100599.59;;;3.65;75.22
34073;BME280;20346;52.702;16.886;2023-02-20T08:31:06;100594.86;;;3.70;75.53
34073;BME280;20346;52.702;16.886;2023-02-20T08:33:53;100595.08;;;3.73;75.35
34073;BME280;20346;52.702;16.886;2023-02-20T08:36:39;100589.49;;;3.77;75.39
34073;BME280;20346;52.702;16.886;2023-02-20T08:39:25;100594.66;;;3.81;75.49
34073;BME280;20346;52.702;16.886;2023-02-20T08:42:13;100592.63;;;3.83;75.62
34073;BME280;20346;52.702;16.886;2023-02-20T08:45:00;100586.85;;;3.85;75.58
34073;BME280;20346;52.702;16.886;2023-02-20T08:47:47;100587.71;;;3.86;75.58
34073;BME280;20346;52.702;16.886;2023-02-20T08:50:33;100570.69;;;3.88;75.65
34073;BME280;20346;52.702;16.886;2023-02-20T08:53:19;100557.92;;;3.91;75.66
34073;BME280;20346;52.702;16.886;2023-02-20T08:56:05;100550.79;;;3.93;75.70
34073;BME280;20346;52.702;16.886;2023-02-20T08:58:52;100562.08;;;3.95;75.75
34073;BME280;20346;52.702;16.886;2023-02-20T09:01:41;100527.31;;;3.98;75.73
34073;BME280;20346;52.702;16.886;2023-02-20T09:04:27;100517.95;;;4.02;75.78
34073;BME280;20346;52.702;16.886;2023-02-20T09:07:13;100505.54;;;4.05;75.95
34073;BME280;20346;52.702;16.886;2023-02-20T09:09:59;100505.38;;;4.07;75.93
34073;BME280;20346;52.702;16.886;2023-02-20T09:12:45;100478.98;;;4.11;75.98
34073;BME280;20346;52.702;16.886;2023-02-20T09:15:31;100458.36;;;4.15;76.02
34073;BME280;20346;52.702;16.886;2023-02-20T09:18:23;100457.34;;;4.19;76.06
34073;BME280;20346;52.702;16.886;2023-02-20T09:21:10;100436.05;;;4.23;76.14
34073;BME280;20346;52.702;16.886;2023-02-20T09:23:56;100405.19;;;4.26;76.27
34073;BME280;20346;52.702;16.886;2023-02-20T09:26:42;100401.95;;;4.26;76.48
34073;BME280;20346;52.702;16.886;2023-02-20T09:29:29;100400.93;;;4.27;76.28
34073;BME280;20346;52.702;16.886;2023-02-20T09:32:15;100388.98;;;4.28;76.41
34073;BME280;20346;52.702;16.886;2023-02-20T09:35:01;100359.99;;;4.29;76.37
34073;BME280;20346;52.702;16.886;2023-02-20T09:37:47;100390.55;;;4.31;76.53
34073;BME280;20346;52.702;16.886;2023-02-20T09:40:34;100393.98;;;4.36;76.58
34073;BME280;20346;52.702;16.886;2023-02-20T09:46:26;100376.65;;;4.49;76.60
34073;BME280;20346;52.702;16.886;2023-02-20T09:49:17;100372.41;;;4.54;76.71
34073;BME280;20346;52.702;16.886;2023-02-20T09:52:05;100377.73;;;4.61;76.69
34073;BME280;20346;52.702;16.886;2023-02-20T09:54:59;100368.86;;;4.68;76.67
34073;BME280;20346;52.702;16.886;2023-02-20T09:57:49;100356.59;;;4.77;76.77
34073;BME280;20346;52.702;16.886;2023-02-20T10:00:37;100343.64;;;4.85;76.92
34073;BME280;20346;52.702;16.886;2023-02-20T10:06:33;100332.06;;;4.98;77.03
34073;BME280;20346;52.702;16.886;2023-02-20T10:09:19;100321.66;;;5.03;77.05
34073;BME280;20346;52.702;16.886;2023-02-20T10:12:18;100300.82;;;5.08;76.96
34073;BME280;20346;52.702;16.886;2023-02-20T10:15:23;100290.74;;;5.13;77.04
34073;BME280;20346;52.702;16.886;2023-02-20T10:21:35;100261.84;;;5.29;77.15
34073;BME280;20346;52.702;16.886;2023-02-20T10:27:29;100256.37;;;5.47;77.24
34073;BME280;20346;52.702;16.886;2023-02-20T10:30:26;100256.02;;;5.54;77.22
34073;BME280;20346;52.702;16.886;2023-02-20T10:36:30;100227.41;;;5.73;77.15
34073;BME280;20346;52.702;16.886;2023-02-20T10:39:20;100230.45;;;5.81;77.38
34073;BME280;20346;52.702;16.886;2023-02-20T10:42:11;100210.95;;;5.89;77.16
34073;BME280;20346;52.702;16.886;2023-02-20T10:45:06;100208.04;;;5.96;77.28
34073;BME280;20346;52.702;16.886;2023-02-20T10:53:57;100218.73;;;6.15;77.34
34073;BME280;20346;52.702;16.886;2023-02-20T10:59:48;100203.58;;;6.29;77.31
34073;BME280;20346;52.702;16.886;2023-02-20T11:02:39;100205.94;;;6.36;77.31
34073;BME280;20346;52.702;16.886;2023-02-20T11:05:27;100199.90;;;6.44;77.36
34073;BME280;20346;52.702;16.886;2023-02-20T11:08:16;100194.03;;;6.52;77.41
34073;BME280;20346;52.702;16.886;2023-02-20T11:11:18;100193.47;;;6.59;77.33
34073;BME280;20346;52.702;16.886;2023-02-20T11:14:15;100175.08;;;6.69;77.41
34073;BME280;20346;52.702;16.886;2023-02-20T11:17:23;100172.79;;;6.77;77.29
34073;BME280;20346;52.702;16.886;2023-02-20T11:26:26;100153.88;;;7.03;77.38
34073;BME280;20346;52.702;16.886;2023-02-20T11:29:15;100139.41;;;7.12;77.42
34073;BME280;20346;52.702;16.886;2023-02-20T11:35:13;100117.85;;;7.25;77.35
34073;BME280;20346;52.702;16.886;2023-02-20T11:44:30;100101.23;;;7.37;77.26
34073;BME280;20346;52.702;16.886;2023-02-20T11:47:18;100094.84;;;7.41;77.24
34073;BME280;20346;52.702;16.886;2023-02-20T11:53:01;100100.45;;;7.46;77.16
34073;BME280;20346;52.702;16.886;2023-02-20T11:59:11;100095.14;;;7.45;77.06
34073;BME280;20346;52.702;16.886;2023-02-20T12:05:17;100087.04;;;7.48;77.05
34073;BME280;20346;52.702;16.886;2023-02-20T12:08:17;100090.80;;;7.49;77.01
34073;BME280;20346;52.702;16.886;2023-02-20T12:11:06;100083.94;;;7.49;77.03
34073;BME280;20346;52.702;16.886;2023-02-20T12:13:54;100081.19;;;7.49;76.94
34073;BME280;20346;52.702;16.886;2023-02-20T12:16:52;100074.16;;;7.49;76.99
34073;BME280;20346;52.702;16.886;2023-02-20T12:26:16;100061.94;;;7.53;76.94
34073;BME280;20346;52.702;16.886;2023-02-20T12:47:32;100020.79;;;7.88;77.01
34073;BME280;20346;52.702;16.886;2023-02-20T13:00:01;100009.92;;;8.04;76.84
34073;BME280;20346;52.702;16.886;2023-02-20T13:02:49;100005.60;;;8.05;76.82
34073;BME280;20346;52.702;16.886;2023-02-20T13:05:38;100018.83;;;8.05;76.83
34073;BME280;20346;52.702;16.886;2023-02-20T13:08:28;100001.14;;;8.05;76.80
34073;BME280;20346;52.702;16.886;2023-02-20T13:11:18;99988.42;;;8.06;76.76
34073;BME280;20346;52.702;16.886;2023-02-20T13:20:19;99993.88;;;8.08;76.78
34073;BME280;20346;52.702;16.886;2023-02-20T13:29:13;99994.23;;;8.08;76.83
34073;BME280;20346;52.702;16.886;2023-02-20T13:32:01;99985.81;;;8.07;76.85
34073;BME280;20346;52.702;16.886;2023-02-20T13:34:47;99988.73;;;8.07;76.85
34073;BME280;20346;52.702;16.886;2023-02-20T13:41:01;99997.17;;;8.07;76.86
34073;BME280;20346;52.702;16.886;2023-02-20T13:43:48;99992.02;;;8.07;76.94
34073;BME280;20346;52.702;16.886;2023-02-20T13:46:49;99990.65;;;8.06;76.84
34073;BME280;20346;52.702;16.886;2023-02-20T13:55:28;99981.08;;;8.04;76.97
34073;BME280;20346;52.702;16.886;2023-02-20T13:58:20;99975.76;;;8.04;76.88
34073;BME280;20346;52.702;16.886;2023-02-20T14:01:07;99972.16;;;8.03;76.90
34073;BME280;20346;52.702;16.886;2023-02-20T14:04:03;99970.61;;;8.03;76.91
34073;BME280;20346;52.702;16.886;2023-02-20T14:06:51;99968.20;;;8.03;76.96
34073;BME280;20346;52.702;16.886;2023-02-20T14:09:37;99968.02;;;8.05;77.00
34073;BME280;20346;52.702;16.886;2023-02-20T14:12:24;99974.02;;;8.05;77.00
34073;BME280;20346;52.702;16.886;2023-02-20T14:15:10;99965.58;;;8.07;77.01
34073;BME280;20346;52.702;16.886;2023-02-20T14:17:56;99958.52;;;8.08;76.95
34073;BME280;20346;52.702;16.886;2023-02-20T14:20:43;99943.22;;;8.10;77.07
34073;BME280;20346;52.702;16.886;2023-02-20T14:23:30;99939.61;;;8.10;76.98
34073;BME280;20346;52.702;16.886;2023-02-20T14:29:04;99945.75;;;8.12;77.04
34073;BME280;20346;52.702;16.886;2023-02-20T14:32:04;99949.00;;;8.13;77.04
34073;BME280;20346;52.702;16.886;2023-02-20T14:34:52;99937.15;;;8.13;77.04
34073;BME280;20346;52.702;16.886;2023-02-20T14:40:56;99939.33;;;8.16;77.09
34073;BME280;20346;52.702;16.886;2023-02-20T14:43:52;99935.20;;;8.17;77.04
34073;BME280;20346;52.702;16.886;2023-02-20T14:46:39;99937.23;;;8.18;77.04
34073;BME280;20346;52.702;16.886;2023-02-20T14:49:26;99926.77;;;8.18;77.09
34073;BME280;20346;52.702;16.886;2023-02-20T14:52:15;99925.73;;;8.19;77.06
34073;BME280;20346;52.702;16.886;2023-02-20T14:55:03;99907.51;;;8.20;77.02
34073;BME280;20346;52.702;16.886;2023-02-20T14:57:49;99904.52;;;8.23;77.10
34073;BME280;20346;52.702;16.886;2023-02-20T15:00:36;99905.85;;;8.26;77.14
34073;BME280;20346;52.702;16.886;2023-02-20T15:03:25;99892.06;;;8.28;77.05
34073;BME280;20346;52.702;16.886;2023-02-20T15:06:13;99891.16;;;8.30;77.00
34073;BME280;20346;52.702;16.886;2023-02-20T15:09:00;99899.56;;;8.32;77.07
34073;BME280;20346;52.702;16.886;2023-02-20T15:11:51;99909.16;;;8.33;76.99
34073;BME280;20346;52.702;16.886;2023-02-20T15:14:51;99916.02;;;8.34;77.06
34073;BME280;20346;52.702;16.886;2023-02-20T15:17:38;99911.22;;;8.33;77.04
34073;BME280;20346;52.702;16.886;2023-02-20T15:23:37;99903.64;;;8.34;77.11
34073;BME280;20346;52.702;16.886;2023-02-20T15:32:25;99930.41;;;8.35;77.15
34073;BME280;20346;52.702;16.886;2023-02-20T15:35:13;99928.68;;;8.36;77.14
34073;BME280;20346;52.702;16.886;2023-02-20T15:38:01;99931.27;;;8.35;77.14
34073;BME280;20346;52.702;16.886;2023-02-20T15:40:47;99931.95;;;8.36;77.14
34073;BME280;20346;52.702;16.886;2023-02-20T15:43:34;99929.89;;;8.36;77.14
34073;BME280;20346;52.702;16.886;2023-02-20T15:46:20;99919.59;;;8.36;77.16
34073;BME280;20346;52.702;16.886;2023-02-20T15:49:07;99930.08;;;8.35;77.17
34073;BME280;20346;52.702;16.886;2023-02-20T15:51:54;99923.72;;;8.35;77.21
34073;BME280;20346;52.702;16.886;2023-02-20T15:54:50;99925.61;;;8.35;77.21
34073;BME280;20346;52.702;16.886;2023-02-20T15:57:36;99921.48;;;8.36;77.23
34073;BME280;20346;52.702;16.886;2023-02-20T16:00:27;99924.05;;;8.36;77.26
34073;BME280;20346;52.702;16.886;2023-02-20T16:03:15;99928.16;;;8.36;77.17
34073;BME280;20346;52.702;16.886;2023-02-20T16:06:02;99928.52;;;8.36;77.19
34073;BME280;20346;52.702;16.886;2023-02-20T16:08:48;99921.29;;;8.36;77.22
34073;BME280;20346;52.702;16.886;2023-02-20T16:11:40;99933.15;;;8.36;77.22
34073;BME280;20346;52.702;16.886;2023-02-20T16:14:28;99938.45;;;8.37;77.25
34073;BME280;20346;52.702;16.886;2023-02-20T16:17:24;99937.06;;;8.38;77.24
34073;BME280;20346;52.702;16.886;2023-02-20T16:20:15;99932.77;;;8.39;77.20
34073;BME280;20346;52.702;16.886;2023-02-20T16:23:01;99929.81;;;8.40;77.29
34073;BME280;20346;52.702;16.886;2023-02-20T16:25:48;99932.52;;;8.42;77.17
34073;BME280;20346;52.702;16.886;2023-02-20T16:28:34;99939.54;;;8.44;77.24
34073;BME280;20346;52.702;16.886;2023-02-20T16:31:21;99941.06;;;8.45;77.26
34073;BME280;20346;52.702;16.886;2023-02-20T16:34:07;99944.98;;;8.46;77.13
34073;BME280;20346;52.702;16.886;2023-02-20T16:36:53;99942.04;;;8.48;77.19
34073;BME280;20346;52.702;16.886;2023-02-20T16:39:39;99950.11;;;8.48;77.21
34073;BME280;20346;52.702;16.886;2023-02-20T16:42:27;99944.08;;;8.49;77.20
34073;BME280;20346;52.702;16.886;2023-02-20T16:45:15;99949.40;;;8.49;77.18
34073;BME280;20346;52.702;16.886;2023-02-20T16:48:01;99949.56;;;8.49;77.24
34073;BME280;20346;52.702;16.886;2023-02-20T16:50:49;99943.88;;;8.51;77.24
34073;BME280;20346;52.702;16.886;2023-02-20T16:53:36;99939.89;;;8.52;77.25
34073;BME280;20346;52.702;16.886;2023-02-20T16:56:22;99950.35;;;8.53;77.30
34073;BME280;20346;52.702;16.886;2023-02-20T16:59:08;99951.53;;;8.55;77.27
34073;BME280;20346;52.702;16.886;2023-02-20T17:01:58;99951.51;;;8.56;77.27
34073;BME280;20346;52.702;16.886;2023-02-20T17:04:44;99957.52;;;8.56;77.28
34073;BME280;20346;52.702;16.886;2023-02-20T17:07:30;99961.95;;;8.58;77.29
34073;BME280;20346;52.702;16.886;2023-02-20T17:10:16;99958.86;;;8.58;77.30
34073;BME280;20346;52.702;16.886;2023-02-20T17:13:02;99965.56;;;8.58;77.27
34073;BME280;20346;52.702;16.886;2023-02-20T17:15:48;99971.06;;;8.57;77.29
34073;BME280;20346;52.702;16.886;2023-02-20T17:18:35;99972.77;;;8.58;77.42